Latest Weather Observations for Laverton

IDV60901

Issued at 8:11 am EST Sunday 29 May 2016 (issued every 10 minutes, with the page automatically refreshed every 10 minutes)

About weather observations | Map of Melbourne area stations | Latest observations for Melbourne area | Other Formats
Station Details ID: 087031 Name: LAVERTON RAAF Lat: -37.86 Lon: 144.76 Height: 20.1 m
Data from the previous 72 hours. | See also: Recent months at Laverton
Date/Time
EST
Tmp

°C
App
Tmp
°C
Dew
Point
°C
Rel
Hum
%
Delta-T

°C
Wind Press
QNH
hPa
Press
MSL
hPa
Rain
since
9 am
mm
Dir
 
Spd
km/h
Gust
km/h
Spd
kts
Gust
kts
29/08:00am 9.9 5.9 4.9 71 2.2 WNW 15 20 8 11 1019.4 1019.4 0.4
29/07:30am 9.9 5.9 4.7 70 2.3 W 15 20 8 11 1019.2 1019.2 0.4
29/07:00am 9.7 5.7 4.7 71 2.2 W 15 20 8 11 1018.9 1018.9 0.4
29/06:30am 9.9 5.5 4.9 71 2.2 W 17 22 9 12 1018.7 1018.7 0.4
29/06:00am 9.9 5.5 4.7 70 2.3 W 17 24 9 13 1018.3 1018.3 0.4
29/05:30am 10.0 5.6 4.8 70 2.3 W 17 24 9 13 1018.2 1018.2 0.4
29/05:00am 9.8 5.0 4.8 71 2.2 W 19 24 10 13 1018.0 1018.0 0.4
29/04:30am 10.0 5.2 4.6 69 2.4 W 19 24 10 13 1017.9 1017.9 0.4
29/04:00am 9.9 5.1 4.5 69 2.4 W 19 24 10 13 1017.6 1017.6 0.4
29/03:30am 9.7 4.9 4.9 72 2.2 W 19 28 10 15 1017.6 1017.6 0.4
29/03:00am 9.9 4.9 4.7 70 2.3 W 20 28 11 15 1017.5 1017.5 0.4
29/02:30am 10.0 5.2 4.4 68 2.5 W 19 24 10 13 1017.4 1017.4 0.4
29/02:00am 9.9 5.5 4.7 70 2.3 W 17 24 9 13 1017.1 1017.1 0.4
29/01:30am 10.0 5.2 5.4 73 2.1 W 20 32 11 17 1016.8 1016.8 0.4
29/01:00am 10.0 5.2 5.6 74 2.0 W 20 30 11 16 1016.7 1016.7 0.4
29/12:30am 10.2 5.4 5.6 73 2.1 W 20 28 11 15 1016.8 1016.8 0.4
29/12:00am 10.1 5.9 5.7 74 2.0 W 17 22 9 12 1016.9 1016.9 0.4
 
Date/Time
EST
Tmp

°C
App
Tmp
°C
Dew
Point
°C
Rel
Hum
%
Delta-T

°C
Wind Press
QNH
hPa
Press
MSL
hPa
Rain
since
9 am
mm
Dir
 
Spd
km/h
Gust
km/h
Spd
kts
Gust
kts
28/11:30pm 10.1 6.0 6.1 76 1.9 W 17 20 9 11 1016.9 1016.9 0.4
28/11:00pm 9.9 5.5 6.6 80 1.5 W 19 26 10 14 1016.8 1016.8 0.4
28/10:30pm 10.0 6.2 6.0 76 1.8 W 15 22 8 12 1016.6 1016.6 0.4
28/10:00pm 10.1 6.5 6.8 80 1.5 W 15 19 8 10 1016.8 1016.8 0.4
28/09:30pm 10.3 6.7 6.6 78 1.7 WSW 15 22 8 12 1016.8 1016.8 0.4
28/09:00pm 10.3 6.3 6.5 77 1.8 WSW 17 20 9 11 1016.7 1016.7 0.4
28/08:30pm 10.4 5.8 6.7 78 1.7 WSW 20 32 11 17 1016.6 1016.6 0.4
28/08:00pm 10.7 6.1 6.6 76 1.9 WSW 20 26 11 14 1016.2 1016.2 0.4
28/07:30pm 10.8 5.8 6.6 75 2.0 WSW 22 30 12 16 1015.9 1015.9 0.4
28/07:00pm 11.0 7.4 6.9 76 1.9 WSW 15 24 8 13 1015.7 1015.7 0.4
28/06:30pm 11.0 7.7 6.6 74 2.1 WSW 13 20 7 11 1015.2 1015.2 0.4
28/06:00pm 11.4 7.2 5.7 68 2.6 WSW 17 24 9 13 1014.7 1014.7 0.4
28/05:30pm 12.0 7.7 5.4 64 3.1 WSW 17 24 9 13 1014.2 1014.2 0.4
28/05:00pm 12.2 8.4 5.8 65 3.0 SW 15 22 8 12 1013.8 1013.8 0.4
28/04:30pm 12.8 8.1 6.2 64 3.1 SW 20 30 11 16 1013.4 1013.4 0.4
28/04:00pm 12.8 8.4 6.6 66 3.0 SSW 19 24 10 13 1013.2 1013.2 0.4
28/03:30pm 13.2 6.8 6.8 65 3.1 SW 30 41 16 22 1013.0 1013.0 0.4
28/03:00pm 14.0 7.5 4.9 54 4.2 SSW 28 35 15 19 1012.6 1012.6 0.4
28/02:30pm 13.5 7.5 5.4 58 3.8 SSW 26 39 14 21 1012.3 1012.3 0.4
28/02:00pm 12.9 8.7 7.4 69 2.7 SSW 19 26 10 14 1012.0 1012.0 0.4
28/01:30pm 12.3 10.6 10.0 86 1.2 S 9 13 5 7 1011.9 1011.9 0.4
28/01:00pm 11.6 9.2 10.0 90 0.8 SSW 13 17 7 9 1012.0 1012.0 0.4
28/12:58pm 11.7 9.3 10.1 90 0.8 SSW 13 17 7 9 1012.0 1012.0 0.4
28/12:42pm 11.5 9.4 9.8 89 0.9 SW 11 17 6 9 1012.0 1012.0 0.2
28/12:30pm 11.9 9.5 10.1 89 0.9 WSW 13 20 7 11 1011.9 1011.9 0.2
28/12:00pm 11.4 7.3 10.1 92 0.7 SSW 22 33 12 18 1012.1 1012.1 0.2
28/11:30am 11.2 8.4 10.0 92 0.6 WSW 15 20 8 11 1012.1 1012.1 0.2
28/11:00am 10.7 7.6 8.8 88 0.9 SW 15 20 8 11 1012.0 1012.0 0.2
28/10:30am 11.2 7.3 9.3 88 1.0 SW 20 26 11 14 1011.9 1011.9 0.0
28/10:00am 10.4 7.3 8.7 89 0.8 WSW 15 20 8 11 1011.7 1011.7 0.0
28/09:30am 10.7 8.1 9.3 91 0.7 WSW 13 19 7 10 1011.2 1011.3 0.0
28/09:00am 9.7 5.8 8.8 94 0.4 WSW 19 24 10 13 1011.1 1011.2 0.4
28/08:30am 8.9 6.2 8.8 99 0.0 W 13 19 7 10 1010.7 1010.8 0.4
28/08:00am 8.6 6.2 8.5 99 0.0 W 11 19 6 10 1010.4 1010.5 0.4
28/07:30am 8.5 5.7 8.4 99 0.0 W 13 17 7 9 1010.3 1010.4 0.4
28/07:21am 8.5 5.7 8.4 99 0.0 WSW 13 17 7 9 1010.3 1010.4 0.4
28/07:07am 8.3 5.0 8.0 98 0.1 SW 15 20 8 11 1010.2 1010.3 0.4
28/07:00am 8.2 5.3 8.1 99 0.0 WSW 13 19 7 10 1010.1 1010.2 0.0
28/06:30am 7.3 4.9 7.2 99 0.0 W 9 13 5 7 1009.5 1009.5 0.0
28/06:00am 6.5 4.0 6.4 99 0.0 WNW 9 11 5 6 1009.1 1009.1 0.0
28/05:30am 5.7 2.6 5.6 99 0.0 NW 11 13 6 7 1008.9 1008.9 0.0
28/05:00am 4.8 2.3 4.7 99 0.0 N 7 11 4 6 1008.8 1008.8 0.0
28/04:30am 5.4 2.6 5.3 99 0.0 WSW 9 13 5 7 1008.6 1008.6 0.0
28/04:00am 5.7 3.0 5.4 98 0.1 WSW 9 9 5 5 1008.4 1008.4 0.0
28/03:30am 6.5 4.2 5.8 95 0.3 WSW 7 7 4 4 1008.3 1008.3 0.0
28/03:00am 7.2 5.2 6.3 94 0.4 SSW 6 7 3 4 1008.5 1008.5 0.0
28/02:57am 7.2 5.2 6.3 94 0.4 SSW 6 9 3 5 1008.4 1008.4 0.0
28/02:41am 7.4 5.2 6.3 93 0.5 S 7 9 4 5 1008.4 1008.4 0.0
28/02:30am 7.7 5.6 6.6 93 0.5 SSE 7 9 4 5 1008.4 1008.4 0.0
28/02:00am 8.1 6.1 6.9 92 0.6 E 7 9 4 5 1008.3 1008.3 0.0
28/01:30am 8.4 6.5 6.7 89 0.8 E 6 7 3 4 1008.2 1008.2 0.0
28/01:00am 8.6 7.1 6.6 87 0.9 E 4 6 2 3 1008.3 1008.3 0.0
28/12:30am 8.7 6.6 6.7 87 0.9 E 7 7 4 4 1008.2 1008.2 0.0
28/12:00am 8.5 6.5 7.0 90 0.7 E 7 9 4 5 1008.4 1008.4 0.0
 
Date/Time
EST
Tmp

°C
App
Tmp
°C
Dew
Point
°C
Rel
Hum
%
Delta-T

°C
Wind Press
QNH
hPa
Press
MSL
hPa
Rain
since
9 am
mm
Dir
 
Spd
km/h
Gust
km/h
Spd
kts
Gust
kts
27/11:30pm 8.4 7.7 6.9 90 0.7 CALM 0 7 0 4 1008.3 1008.3 0.0
27/11:00pm 8.1 7.3 6.7 91 0.6 CALM 0 0 0 0 1008.2 1008.2 0.0
27/10:30pm 7.5 5.6 6.6 94 0.4 E 6 7 3 4 1008.1 1008.1 0.0
27/10:00pm 7.2 5.2 6.1 93 0.5 E 6 7 3 4 1008.1 1008.1 0.0
27/09:30pm 7.8 5.6 6.1 89 0.8 E 7 9 4 5 1008.0 1008.0 0.0
27/09:00pm 8.6 6.4 6.2 85 1.1 E 7 9 4 5 1007.9 1007.9 0.0
27/08:30pm 8.6 6.4 6.1 84 1.1 E 7 7 4 4 1007.8 1007.8 0.0
27/08:00pm 8.7 6.4 5.8 82 1.3 E 7 9 4 5 1007.6 1007.6 0.0
27/07:30pm 8.7 6.5 6.0 83 1.2 ESE 7 7 4 4 1007.5 1007.5 0.0
27/07:00pm 9.4 7.4 6.1 80 1.5 ESE 6 6 3 3 1007.3 1007.3 0.0
27/06:30pm 9.7 7.7 6.4 80 1.5 ESE 6 7 3 4 1007.2 1007.2 0.0
27/06:00pm 10.0 7.8 6.3 78 1.7 ESE 7 9 4 5 1007.0 1007.0 0.0
27/05:30pm 11.0 8.8 6.4 73 2.2 SE 7 7 4 4 1006.8 1006.8 0.0
27/05:00pm 11.4 8.9 6.5 72 2.3 SE 9 11 5 6 1006.8 1006.8 0.0
27/04:30pm 12.9 10.5 7.1 68 2.8 SSE 9 11 5 6 1006.6 1006.6 0.0
27/04:00pm 13.6 11.3 7.4 66 3.0 SSE 9 13 5 7 1006.6 1006.6 0.0
27/03:30pm 13.4 11.1 7.6 68 2.8 SSE 9 11 5 6 1006.6 1006.6 0.0
27/03:00pm 13.3 10.0 6.4 63 3.3 S 13 19 7 10 1006.6 1006.6 0.0
27/02:30pm 13.5 10.2 6.6 63 3.3 SSW 13 17 7 9 1006.5 1006.5 0.0
27/02:00pm 13.6 10.8 6.9 64 3.3 SW 11 19 6 10 1006.7 1006.7 0.0
27/01:30pm 14.8 11.3 7.4 61 3.7 W 15 19 8 10 1006.7 1006.7 0.0
27/01:00pm 13.5 9.5 6.8 64 3.2 W 17 22 9 12 1006.9 1006.9 0.0
27/12:30pm 13.3 9.3 6.6 64 3.2 W 17 22 9 12 1007.2 1007.2 0.0
27/12:00pm 13.7 9.4 7.2 65 3.2 W 19 28 10 15 1007.4 1007.4 0.0
27/11:30am 13.0 8.9 7.7 70 2.6 W 19 26 10 14 1007.7 1007.7 0.0
27/11:00am 12.5 8.1 7.6 72 2.4 W 20 30 11 16 1008.0 1008.0 0.0
27/10:30am 12.1 8.1 8.4 78 1.8 W 19 28 10 15 1008.2 1008.2 0.0
27/10:00am 10.9 6.8 8.0 82 1.4 WNW 19 24 10 13 1008.2 1008.2 0.0
27/09:30am 10.1 7.2 8.0 87 1.0 WNW 13 17 7 9 1008.2 1008.2 0.0
27/09:00am 8.9 5.9 7.8 93 0.5 WNW 13 17 7 9 1008.1 1008.1 2.2
27/08:30am 7.7 4.9 7.1 96 0.3 WNW 11 15 6 8 1008.1 1008.1 2.2
27/08:00am 6.7 3.1 6.6 99 0.0 WNW 15 17 8 9 1007.8 1007.8 2.2
27/07:30am 5.9 2.1 5.8 99 0.0 WNW 15 17 8 9 1007.8 1007.8 2.2
27/07:00am 5.8 1.6 5.5 98 0.1 NW 17 19 9 10 1007.6 1007.6 2.2
27/06:30am 6.0 2.6 5.7 98 0.1 NW 13 17 7 9 1007.4 1007.4 2.2
27/06:00am 6.1 2.6 5.5 96 0.3 WNW 13 15 7 8 1007.3 1007.3 2.2
27/05:30am 6.0 2.5 5.4 96 0.3 NW 13 17 7 9 1007.3 1007.3 2.2
27/05:00am 7.0 3.5 5.6 91 0.6 NW 13 15 7 8 1007.3 1007.3 2.2
27/04:30am 8.0 4.3 6.3 89 0.8 WNW 15 20 8 11 1007.3 1007.3 2.2
27/04:00am 7.1 3.7 5.9 92 0.5 WNW 13 17 7 9 1007.1 1007.1 2.2
27/03:30am 7.1 3.6 5.6 90 0.7 WNW 13 17 7 9 1006.9 1006.9 2.2
27/03:00am 7.3 3.1 5.9 91 0.6 WNW 17 20 9 11 1007.1 1007.1 2.2
27/02:30am 7.0 2.8 5.5 90 0.7 WNW 17 20 9 11 1007.1 1007.1 2.2
27/02:00am 6.6 2.8 5.6 93 0.4 WNW 15 19 8 10 1007.2 1007.2 2.2
27/01:30am 6.5 3.0 5.6 94 0.4 WNW 13 17 7 9 1007.0 1007.0 2.2
27/01:00am 6.6 2.7 5.4 92 0.5 WNW 15 17 8 9 1007.1 1007.1 2.2
27/12:30am 7.4 3.2 5.9 90 0.7 WNW 17 22 9 12 1007.2 1007.2 2.2
27/12:00am 7.2 3.0 5.8 91 0.6 WNW 17 20 9 11 1007.3 1007.3 2.2
 
Date/Time
EST
Tmp

°C
App
Tmp
°C
Dew
Point
°C
Rel
Hum
%
Delta-T

°C
Wind Press
QNH
hPa
Press
MSL
hPa
Rain
since
9 am
mm
Dir
 
Spd
km/h
Gust
km/h
Spd
kts
Gust
kts
26/11:30pm 8.1 4.0 6.1 87 0.9 WNW 17 22 9 12 1007.2 1007.2 2.2
26/11:00pm 8.5 4.4 6.3 86 1.0 WNW 17 24 9 13 1007.2 1007.2 2.2
26/10:30pm 8.5 4.4 6.3 86 1.0 W 17 24 9 13 1007.2 1007.2 2.2
26/10:00pm 8.6 4.5 6.4 86 1.0 W 17 24 9 13 1007.3 1007.3 2.2
26/09:30pm 8.9 5.2 6.5 85 1.1 W 15 24 8 13 1007.2 1007.2 2.2
26/09:00pm 9.0 5.0 6.8 86 1.0 W 17 20 9 11 1007.0 1007.0 2.2
26/08:30pm 9.3 5.4 7.3 87 0.9 W 17 22 9 12 1006.8 1006.8 2.2
26/08:00pm 9.6 6.2 7.5 87 1.0 W 15 19 8 10 1006.6 1006.6 2.2
26/07:30pm 10.1 6.6 7.3 83 1.3 WSW 15 22 8 12 1006.3 1006.3 2.2
26/07:00pm 10.3 7.5 8.4 88 0.9 W 13 17 7 9 1006.1 1006.1 2.2
26/06:30pm 10.4 6.9 8.7 89 0.8 W 17 20 9 11 1005.8 1005.8 2.2
26/06:00pm 10.6 7.0 8.4 86 1.1 SW 17 26 9 14 1005.5 1005.5 2.2
26/05:30pm 10.8 7.1 8.0 83 1.4 WSW 17 24 9 13 1004.9 1004.9 2.0
26/05:00pm 10.6 7.4 8.4 86 1.1 W 15 20 8 11 1004.7 1004.7 2.0
26/04:30pm 10.9 6.3 8.3 84 1.3 WSW 22 35 12 19 1004.3 1004.3 2.0
26/04:00pm 11.3 7.6 9.6 89 0.9 W 19 26 10 14 1004.1 1004.1 2.0
26/03:30pm 11.6 8.6 10.5 93 0.6 W 17 24 9 13 1003.9 1003.9 2.0
26/03:00pm 11.4 9.1 10.5 94 0.5 W 13 20 7 11 1003.6 1003.6 1.8
26/02:30pm 11.4 8.1 10.8 96 0.3 WSW 19 24 10 13 1003.4 1003.4 1.6
26/02:00pm 11.5 8.8 10.2 92 0.7 WSW 15 20 8 11 1003.4 1003.4 1.4
26/01:30pm 12.1 8.8 9.5 84 1.3 WSW 17 24 9 13 1003.3 1003.3 0.8
26/01:00pm 11.9 8.4 10.1 89 0.9 WSW 19 28 10 15 1003.2 1003.2 0.8
26/12:42pm 12.0 9.0 10.6 91 0.7 WSW 17 24 9 13 1003.2 1003.2 0.8
26/12:30pm 11.8 8.9 11.0 95 0.4 WSW 17 24 9 13 1003.2 1003.2 0.8
26/12:03pm 11.2 8.7 11.0 99 0.1 SW 15 20 8 11 1003.2 1003.2 0.8
26/12:02pm 11.2 8.7 11.0 99 0.1 SW 15 20 8 11 1003.2 1003.2 0.8
26/12:00pm 11.2 8.7 11.0 99 0.1 SW 15 20 8 11 1003.2 1003.2 0.8
26/11:36am 10.9 7.5 10.7 99 0.1 SW 19 28 10 15 1003.4 1003.4 0.8
26/11:30am 10.9 7.3 10.7 99 0.1 SW 20 26 11 14 1003.5 1003.5 0.8
26/11:18am 11.0 7.7 10.8 99 0.1 SW 19 26 10 14 1003.6 1003.6 0.6
26/11:12am 10.9 7.3 10.7 99 0.1 SW 20 26 11 14 1003.6 1003.6 0.6
26/11:00am 10.9 7.9 10.7 99 0.1 WSW 17 28 9 15 1003.6 1003.6 0.6
26/10:38am 11.0 8.8 10.8 99 0.1 W 13 20 7 11 1003.5 1003.5 0.6
26/10:30am 10.9 8.7 10.7 99 0.1 WNW 13 20 7 11 1003.5 1003.5 0.6
26/10:22am 11.0 8.8 10.8 99 0.1 WNW 13 19 7 10 1003.4 1003.4 0.6
26/10:00am 10.9 9.1 10.7 99 0.1 NW 11 13 6 7 1003.3 1003.3 0.6
26/09:30am 10.4 8.8 10.2 99 0.1 N 9 11 5 6 1003.4 1003.4 0.4
26/09:01am 10.1 8.4 10.0 99 0.1 N 9 13 5 7 1003.4 1003.4 0.0
26/09:00am 10.1 8.4 10.0 99 0.1 N 9 13 5 7 1003.4 1003.4 8.8
26/08:32am 9.9 8.2 9.8 99 0.1 N 9 11 5 6 1003.4 1003.4 8.6
26/08:30am 9.9 8.2 9.8 99 0.1 N 9 11 5 6 1003.4 1003.4 8.6

Latest Capital City Observations: Canberra | Sydney | Melbourne | Brisbane | Adelaide | Perth | Hobart | Darwin

Other Formats:

Comma delimited format used in spreadsheet applications
http://www.bom.gov.au/fwo/IDV60901/IDV60901.94865.axf

JavaScript Object Notation format (JSON) in row-major order
http://www.bom.gov.au/fwo/IDV60901/IDV60901.94865.json